Pagrindinis puslapis
METAR-TAF:

METAR-TAF

Oro uostai :

Weipa, Australija

platuma: 12-40-43S, ilguma: 141-55-31E, Aukštis: 19 m

Dabartinis oras

Ataskaita buvo paskelbta 37 minutes, ne 00:00 UTC
Vėjas 1 kt iš Šiaurės Rytų
Temperatūra 29°C
Drėgmė 79%
Slėgis 1006 hPa
Matomumas 10 km arba daugiau
Su prošvaistėmis ne aukštis 12000 ft

METAR: YBWP 260000Z AUTO 05001KT 9999 // BKN120 29/25 Q1006

Laikas: 10:37 (00:37 UTC)


TAF: trūkstamas

Orai ataskaitas ir orų prognozės (METAR, TAF).

turimą stotys yra geltonos ir raudonos taškus žemėlapyje.

Perkelti pele per norėdami pamatyti stoties vardą.

Tada spustelėkite, norėdami matyti oro stebėjimo ir prognozės.

Norėdami pakeisti žemėlapį: spustelėkite ant žalios mygtukų su juodo kryžiaus žemyn,; žalią mygtuką su brūkšneliu, jei norite nutolinti; arba žalių rodyklių gretimoms žemėlapius.


METAR-TAF: